CheckWX is a tool to help pilots better visualize weather data.  It is not intended as a substitute for an official pre-flight weather briefing.

09:13:50 UTC

KEWK METAR
Newton-City-County Airport
Newton, Kansas, USA
Current

18 mins ago

KEWK 140856Z AUTO 32004KT 10SM SCT032 01/M06 A3022 RMK AO2 SLP239 T00061056 51016 FZRANO
Observed
Nov-14 @ 08:56 UTC
Wind
  • 320° at 4 KTS
Visibility
10 SM
Flight Rules
VFR
Cloud Levels
  • Scattered at 3,200' AGL
Temperature
C / 34°F
Dewpoint
-6°C / 21°F
Humidity
60%
Altimeter
30.22" Hg
Pressure
1023.42 hPa
Previous

1 hour ago

KEWK 140756Z AUTO 33006KT 10SM OVC032 02/M06 A3021 RMK AO2 SLP235 T00171061 FZRANO
Observed
Nov-14 @ 07:56 UTC
Wind
  • 330° at 6 KTS
Visibility
10 SM
Flight Rules
VFR
Cloud Levels
  • Overcast at 3,200' AGL
Temperature
C / 36°F
Dewpoint
-6°C / 21°F
Humidity
56%
Altimeter
30.21" Hg
Pressure
1023.02 hPa
Previous

2 hours ago

KEWK 140656Z AUTO 32007KT 10SM OVC034 00/M07 A3020 RMK AO2 SLP232 T00001067 FZRANO
Observed
Nov-14 @ 06:56 UTC
Wind
  • 320° at 7 KTS
Visibility
10 SM
Flight Rules
VFR
Cloud Levels
  • Overcast at 3,400' AGL
Temperature
C / 32°F
Dewpoint
-7°C / 19°F
Humidity
60%
Altimeter
30.2" Hg
Pressure
1022.72 hPa